Time;durP1;ratioP1;P1;durP2;ratioP2;P2;SDS_P1;SDS_P2;PMS_P1;PMS_P2;Temp;Humidity;BMP_temperature;BMP_pressure;BME280_temperature;BME280_humidity;BME280_pressure;Samples;Min_cycle;Max_cycle;Signal;HPM_P1;HPM_P2
2023/06/14 00:00:04;;;;;;;10.65;6.38;;;;;;;18.91;46.65;101222.78;5122753;29;20479;-71
2023/06/14 00:02:35;;;;;;;11.82;6.90;;;;;;;18.72;47.15;101230.56;5123451;29;20036;-71
2023/06/14 00:05:07;;;;;;;9.03;6.07;;;;;;;18.69;47.19;101228.06;5123300;29;20043;-70
2023/06/14 00:07:43;;;;;;;11.57;6.63;;;;;;;18.59;47.46;101231.97;5122558;29;20032;-70
2023/06/14 00:10:15;;;;;;;12.98;6.35;;;;;;;18.63;48.56;101233.56;5122352;29;20024;-70
2023/06/14 00:12:46;;;;;;;10.47;6.30;;;;;;;18.45;47.95;101229.88;5123036;29;20052;-69
2023/06/14 00:15:17;;;;;;;13.83;7.10;;;;;;;18.48;47.83;101234.16;5122788;29;20050;-70
2023/06/14 00:17:49;;;;;;;14.33;6.33;;;;;;;18.42;47.88;101240.56;5121863;29;20063;-70
2023/06/14 00:20:21;;;;;;;9.77;6.90;;;;;;;18.20;47.83;101233.44;5123388;29;20032;-70
2023/06/14 00:22:53;;;;;;;10.80;7.40;;;;;;;18.29;48.41;101241.91;5123221;29;20115;-70
2023/06/14 00:25:25;;;;;;;9.07;5.75;;;;;;;18.21;48.93;101240.44;5122539;29;20107;-70
2023/06/14 00:27:57;;;;;;;11.15;6.57;;;;;;;17.95;48.23;101241.41;5123373;29;20043;-70
2023/06/14 00:30:30;;;;;;;12.57;6.47;;;;;;;17.90;49.19;101245.97;5122976;29;20032;-70
2023/06/14 00:33:01;;;;;;;;;;;;;;;18.20;46.22;101243.13;5123128;29;20100;-69
2023/06/14 00:35:33;;;;;;;14.93;6.67;;;;;;;18.11;49.39;101249.63;5122934;29;19911;-71
2023/06/14 00:38:04;;;;;;;9.17;6.27;;;;;;;18.07;49.61;101241.88;5122646;29;20036;-70
2023/06/14 00:40:36;;;;;;;10.83;5.90;;;;;;;17.80;50.01;101241.91;5122726;29;20036;-70
2023/06/14 00:43:07;;;;;;;10.43;6.37;;;;;;;17.79;50.12;101241.06;5122634;29;20036;-70
2023/06/14 00:45:39;;;;;;;8.53;6.00;;;;;;;17.55;49.95;101242.78;5122596;29;20032;-70
2023/06/14 00:48:11;;;;;;;17.17;6.43;;;;;;;17.75;50.56;101251.78;5122754;29;20063;-70
2023/06/14 00:50:45;;;;;;;11.57;6.40;;;;;;;17.50;49.73;101242.09;5121232;29;20127;-70
2023/06/14 00:53:22;;;;;;;14.63;6.43;;;;;;;17.55;50.55;101242.78;5122882;29;20044;-70
2023/06/14 00:55:54;;;;;;;12.60;6.40;;;;;;;17.52;50.44;101245.53;5122331;29;20036;-70
2023/06/14 00:58:26;;;;;;;9.07;6.03;;;;;;;17.41;49.48;101242.41;5122623;29;20480;-70
2023/06/14 01:00:57;;;;;;;10.00;6.43;;;;;;;17.38;49.90;101242.50;5121996;29;20036;-70
2023/06/14 01:03:29;;;;;;;11.53;6.53;;;;;;;17.52;51.07;101249.91;5122804;29;20042;-70
2023/06/14 01:06:26;;;;;;;10.13;5.83;;;;;;;17.42;49.56;101255.53;5122523;29;20043;-69
2023/06/14 01:09:18;;;;;;;11.35;6.35;;;;;;;17.34;50.09;101247.03;5122063;29;20040;-70
2023/06/14 01:12:01;;;;;;;7.18;5.70;;;;;;;17.20;49.62;101243.97;5121831;29;20103;-70
2023/06/14 01:14:34;;;;;;;12.30;6.25;;;;;;;17.08;49.39;101240.84;5122041;29;20059;-70
2023/06/14 01:17:15;;;;;;;8.60;5.97;;;;;;;17.02;49.17;101250.72;5121809;29;20111;-69
2023/06/14 01:19:46;;;;;;;9.00;6.35;;;;;;;16.94;50.04;101241.28;5122238;29;20472;-70
2023/06/14 01:22:18;;;;;;;14.63;6.80;;;;;;;16.81;48.85;101246.94;5122036;29;20072;-70
2023/06/14 01:24:50;;;;;;;7.53;5.10;;;;;;;16.98;49.20;101246.44;5122066;29;20037;-70
2023/06/14 01:27:28;;;;;;;11.80;5.22;;;;;;;16.99;48.80;101253.44;5121674;29;20168;-70
2023/06/14 01:30:02;;;;;;;11.93;5.68;;;;;;;16.86;49.12;101240.66;5121596;29;20048;-70
2023/06/14 01:32:33;;;;;;;6.65;4.82;;;;;;;16.92;49.39;101247.50;5121941;29;20469;-70
2023/06/14 01:35:05;;;;;;;7.57;5.17;;;;;;;16.82;49.71;101252.16;5121266;29;20035;-71
2023/06/14 01:37:38;;;;;;;7.75;4.68;;;;;;;16.77;49.48;101249.66;5122250;29;20040;-71
2023/06/14 01:40:10;;;;;;;;;;;;;;;16.91;47.61;101253.69;5121953;29;20380;-71
2023/06/14 01:42:42;;;;;;;;;;;;;;;16.90;46.92;101254.59;5121590;29;20227;-71
2023/06/14 01:45:14;;;;;;;;;;;;;;;16.90;46.68;101254.59;5121374;29;19915;-71
2023/06/14 01:47:45;;;;;;;;;;;;;;;16.86;46.37;101258.25;5120456;29;20297;-71
2023/06/14 01:50:18;;;;;;;;;;;;;;;16.81;46.18;101255.72;5121532;29;20446;-71
2023/06/14 01:52:50;;;;;;;;;;;;;;;16.77;46.33;101247.03;5121737;29;19911;-71
2023/06/14 01:55:21;;;;;;;;;;;;;;;16.71;46.30;101241.97;5121782;29;20378;-71
2023/06/14 01:57:53;;;;;;;;;;;;;;;16.68;46.33;101246.47;5121535;29;20030;-71
2023/06/14 02:00:24;;;;;;;;;;;;;;;16.68;45.94;101236.81;5121255;29;20398;-71
2023/06/14 02:02:55;;;;;;;;;;;;;;;16.65;45.96;101243.94;5121284;29;20399;-71
2023/06/14 02:05:26;;;;;;;;;;;;;;;16.61;46.07;101244.94;5121491;29;20282;-71
2023/06/14 02:07:58;;;;;;;;;;;;;;;16.53;46.35;101251.28;5121472;29;19925;-71
2023/06/14 02:10:29;;;;;;;;;;;;;;;16.50;45.77;101247.88;5121097;29;19947;-71
2023/06/14 02:13:00;;;;;;;;;;;;;;;16.47;46.11;101243.59;5121502;29;19922;-71
2023/06/14 02:15:33;;;;;;;;;;;;;;;16.43;46.31;101243.72;5121342;29;19923;-70
2023/06/14 02:18:05;;;;;;;;;;;;;;;16.38;46.03;101249.13;5121234;29;19926;-71
2023/06/14 02:20:36;;;;;;;;;;;;;;;16.37;45.78;101250.91;5121643;29;19915;-71
2023/06/14 02:23:07;;;;;;;;;;;;;;;16.35;45.69;101246.56;5121420;29;19919;-70
2023/06/14 02:25:40;;;;;;;;;;;;;;;16.33;45.79;101248.41;5120963;29;20367;-71
2023/06/14 02:28:11;;;;;;;;;;;;;;;16.29;45.49;101246.75;5121523;29;19919;-71
2023/06/14 02:30:42;;;;;;;;;;;;;;;16.26;45.80;101247.72;5122101;29;19920;-71
2023/06/14 02:33:14;;;;;;;;;;;;;;;16.22;45.52;101252.19;5121218;29;20285;-71
2023/06/14 02:35:46;;;;;;;;;;;;;;;16.19;45.89;101254.06;5121186;29;19926;-70
2023/06/14 02:38:17;;;;;;;;;;;;;;;16.14;45.74;101258.59;5121066;29;20013;-71
2023/06/14 02:40:48;;;;;;;;;;;;;;;16.09;46.54;101257.88;5121140;29;20018;-71
2023/06/14 02:43:20;;;;;;;;;;;;;;;16.04;45.50;101264.09;5120811;29;19962;-71
2023/06/14 02:45:52;;;;;;;;;;;;;;;16.01;45.37;101266.81;5121670;29;19932;-70
2023/06/14 02:48:23;;;;;;;;;;;;;;;15.96;45.78;101266.09;5121631;29;19919;-71
2023/06/14 02:50:56;;;;;;;;;;;;;;;15.90;45.69;101258.34;5121022;29;19919;-70
2023/06/14 02:53:27;;;;;;;;;;;;;;;15.86;45.66;101260.22;5120968;29;19963;-71
2023/06/14 02:55:58;;;;;;;;;;;;;;;15.84;45.58;101264.66;5120977;29;20324;-71
2023/06/14 02:58:30;;;;;;;;;;;;;;;15.81;45.53;101267.38;5120935;29;19926;-70
2023/06/14 03:01:03;;;;;;;;;;;;;;;15.76;45.61;101269.25;5120558;29;19930;-70
2023/06/14 03:03:34;;;;;;;;;;;;;;;15.72;45.69;101266.72;5121261;29;19915;-71
2023/06/14 03:06:08;;;;;;;;;;;;;;;15.67;45.89;101272.09;5120897;29;19919;-71
2023/06/14 03:08:41;;;;;;;;;;;;;;;15.62;45.73;101268.72;5120802;29;20323;-71
2023/06/14 03:11:12;;;;;;;;;;;;;;;15.57;46.20;101275.84;5121779;29;19930;-71
2023/06/14 03:13:45;;;;;;;;;;;;;;;15.53;45.96;101272.44;5124533;29;19918;-71
2023/06/14 03:16:19;;;;;;;;;;;;;;;15.52;46.07;101272.47;5123414;29;19983;-71
2023/06/14 03:18:51;;;;;;;;;;;;;;;15.47;45.80;101281.34;5124510;29;20275;-71
2023/06/14 03:21:22;;;;;;;;;;;;;;;15.44;46.06;101277.91;5123105;29;19919;-71
2023/06/14 03:23:54;;;;;;;;;;;;;;;15.38;46.12;101278.94;5124528;29;19919;-71
2023/06/14 03:26:25;;;;;;;;;;;;;;;15.38;46.53;101278.09;5124326;29;20330;-71
2023/06/14 03:28:56;;;;;;;;;;;;;;;15.35;46.56;101283.44;5123800;29;19919;-71
2023/06/14 03:31:32;;;;;;;;;;;;;;;15.29;46.27;101287.94;5124070;29;20326;-70
2023/06/14 03:34:03;;;;;;;;;;;;;;;15.28;46.50;101287.97;5124021;29;19921;-71
2023/06/14 03:36:34;;;;;;;;;;;;;;;15.27;46.24;101288.88;5123867;29;20029;-71
2023/06/14 03:39:06;;;;;;;;;;;;;;;15.26;46.63;101293.25;5123999;29;20283;-71
2023/06/14 03:41:37;;;;;;;;;;;;;;;15.25;47.22;101286.28;5123836;29;19915;-71
2023/06/14 03:44:08;;;;;;;;;;;;;;;15.24;46.57;101294.19;5124151;29;19926;-71
2023/06/14 03:46:39;;;;;;;;;;;;;;;15.22;47.13;101288.13;5124018;29;19930;-70
2023/06/14 03:49:11;;;;;;;;;;;;;;;15.21;46.86;101289.84;5123794;29;19919;-70
2023/06/14 03:51:42;;;;;;;;;;;;;;;15.21;46.66;101297.75;5123254;29;19930;-71
2023/06/14 03:54:14;;;;;;;;;;;;;;;15.22;46.81;101296.00;5123975;29;20394;-71
2023/06/14 03:56:45;;;;;;;;;;;;;;;15.22;46.83;101294.22;5123186;29;20006;-70
2023/06/14 03:59:17;;;;;;;;;;;;;;;15.23;46.87;101292.44;5123699;29;20263;-70
2023/06/14 04:01:48;;;;;;;;;;;;;;;15.23;46.76;101300.31;5123513;29;19967;-71
2023/06/14 04:04:21;;;;;;;;;;;;;;;15.21;47.29;101310.00;5122285;29;20347;-71
2023/06/14 04:06:52;;;;;;;;;;;;;;;15.19;47.68;101304.78;5123460;29;20453;-71
2023/06/14 04:09:24;;;;;;;;;;;;;;;15.16;47.96;101299.63;5123374;29;20010;-71
2023/06/14 04:11:55;;;;;;;;;;;;;;;15.13;47.71;101303.19;5123465;29;19926;-71
2023/06/14 04:14:27;;;;;;;;;;;;;;;15.09;47.71;101305.94;5123195;29;20363;-72
2023/06/14 04:16:58;;;;;;;;;;;;;;;15.07;48.07;101302.44;5123215;29;20454;-71
2023/06/14 04:19:30;;;;;;;;;;;;;;;15.07;47.62;101319.09;5123037;29;19915;-71
2023/06/14 04:22:02;;;;;;;;;;;;;;;15.06;48.83;101311.25;5123055;29;19915;-71
2023/06/14 04:24:34;;;;;;;;;;;;;;;15.07;47.49;101312.94;5123319;29;19954;-71
2023/06/14 04:27:06;;;;;;;;;;;;;;;15.09;48.48;101316.44;5123360;29;20009;-71
2023/06/14 04:29:38;;;;;;;;;;;;;;;15.12;48.62;101313.72;5123232;29;20010;-72
2023/06/14 04:32:10;;;;;;;;;;;;;;;15.14;50.04;101311.94;5123013;29;20371;-71
2023/06/14 04:34:42;;;;;;;;;;;;;;;15.13;49.36;101318.94;5123454;29;19919;-71
2023/06/14 04:37:13;;;;;;;;;;;;;;;15.14;50.07;101315.41;5122797;29;19919;-71
2023/06/14 04:39:45;;;;;;;;;;;;;;;15.17;50.14;101318.88;5122818;29;20263;-71
2023/06/14 04:42:16;;;;;;;;;;;;;;;15.21;49.32;101325.78;5122765;29;19967;-71
2023/06/14 04:44:48;;;;;;;;;;;;;;;15.23;48.47;101321.34;5122606;29;19919;-71
2023/06/14 04:47:20;;;;;;;;;;;;;;;15.28;49.50;101316.88;5122642;29;19919;-71
2023/06/14 04:49:52;;;;;;;;;;;;;;;15.29;52.58;101315.94;5122579;29;19942;-71
2023/06/14 04:52:26;;;;;;;;;;;;;;;15.33;50.74;101325.50;5122446;29;20351;-71
2023/06/14 04:54:57;;;;;;;;;;;;;;;15.37;51.68;101327.13;5122606;29;20418;-71
2023/06/14 04:57:29;;;;;;;;;;;;;;;15.45;51.84;101330.44;5122071;29;19922;-71
2023/06/14 05:00:04;;;;;;;;;;;;;;;15.51;54.11;101334.69;5122952;29;20320;-71
2023/06/14 05:02:35;;;;;;;;;;;;;;;15.57;52.08;101329.28;5122553;29;19966;-71
2023/06/14 05:05:08;;;;;;;;;;;;;;;15.66;51.66;101333.44;5122499;29;20276;-71
2023/06/14 05:07:39;;;;;;;;;;;;;;;15.72;51.84;101337.69;5122779;29;19942;-72
2023/06/14 05:10:10;;;;;;;;;;;;;;;15.78;51.58;101333.16;5122159;29;19919;-71
2023/06/14 05:12:43;;;;;;;;;;;;;;;15.87;52.26;101332.06;5122433;29;19930;-71
2023/06/14 05:15:14;;;;;;;;;;;;;;;15.92;53.84;101337.19;5121615;29;20397;-71
2023/06/14 05:17:52;;;;;;;;;;;;;;;15.98;52.43;101340.50;5121906;29;19919;-70
2023/06/14 05:20:24;;;;;;;;;;;;;;;16.07;52.49;101346.44;5122719;29;19920;-70
2023/06/14 05:22:56;;;;;;;;;;;;;;;16.12;52.49;101349.81;5121611;29;19947;-70
2023/06/14 05:25:28;;;;;;;;;;;;;;;16.17;53.61;101343.53;5121901;29;19919;-70
2023/06/14 05:27:59;;;;;;;;;;;;;;;16.23;53.20;101347.78;5121761;29;19938;-70
2023/06/14 05:30:33;;;;;;;;;;;;;;;16.29;53.09;101344.94;5122012;29;19919;-70
2023/06/14 05:33:04;;;;;;;;;;;;;;;16.34;51.90;101344.81;5121254;29;19923;-70
2023/06/14 05:35:35;;;;;;;;;;;;;;;16.39;52.39;101348.22;5121678;29;19919;-70
2023/06/14 05:38:07;;;;;;;;;;;;;;;16.48;51.88;101349.69;5121638;29;20021;-70
2023/06/14 05:40:38;;;;;;;;;;;;;;;16.55;52.05;101349.50;5121650;29;19915;-70
2023/06/14 05:43:10;;;;;;;;;;;;;;;16.64;52.19;101363.28;5121841;29;19919;-71
2023/06/14 05:45:41;;;;;;;;;;;;;;;16.72;52.74;101362.16;5121269;29;20298;-71
2023/06/14 05:48:12;;;;;;;;;;;;;;;16.81;52.36;101352.25;5121184;29;20374;-71
2023/06/14 05:50:44;;;;;;;;;;;;;;;16.88;52.64;101359.09;5121498;29;19918;-71
2023/06/14 05:53:15;;;;;;;;;;;;;;;16.97;51.63;101361.47;5121443;29;19922;-71
2023/06/14 05:55:46;;;;;;;;;;;;;;;17.07;51.20;101355.00;5121553;29;19919;-69
2023/06/14 05:58:17;;;;;;;;;;;;;;;17.20;52.28;101367.81;5121319;29;19999;-70
2023/06/14 06:00:49;;;;;;;;;;;;;;;17.25;51.29;101357.97;5121777;29;19926;-71
2023/06/14 06:03:20;;;;;;;;;;;;;;;17.31;50.83;101358.63;5121112;29;19926;-71
2023/06/14 06:05:52;;;;;;;;;;;;;;;17.41;50.79;101368.91;5121171;29;20390;-71
2023/06/14 06:08:23;;;;;;;;;;;;;;;17.49;50.83;101369.50;5121164;29;20450;-70
2023/06/14 06:10:54;;;;;;;;;;;;;;;17.58;50.02;101370.97;5120867;29;20347;-70
2023/06/14 06:13:25;;;;;;;;;;;;;;;17.68;49.95;101372.41;5121382;29;19919;-70
2023/06/14 06:15:57;;;;;;;;;;;;;;;17.79;50.05;101375.56;5121266;29;19933;-69
2023/06/14 06:18:28;;;;;;;;;;;;;;;17.87;49.57;101375.31;5120666;29;19920;-70
2023/06/14 06:21:00;;;;;;;;;;;;;;;17.97;49.47;101383.78;5121345;29;19971;-71
2023/06/14 06:23:31;;;;;;;;;;;;;;;18.09;49.20;101380.72;5120809;29;19919;-70
2023/06/14 06:26:03;;;;;;;;;;;;;;;18.19;48.51;101391.81;5121086;29;19919;-71
2023/06/14 06:28:34;;;;;;;;;;;;;;;18.30;48.77;101394.06;5120884;29;19920;-71
2023/06/14 06:31:05;;;;;;;;;;;;;;;18.38;47.51;101395.50;5120844;29;19919;-70
2023/06/14 06:33:37;;;;;;;;;;;;;;;18.45;47.79;101400.56;5121126;29;19919;-70
2023/06/14 06:36:08;;;;;;;;;;;;;;;18.54;47.59;101402.88;5120746;29;20071;-70
2023/06/14 06:38:40;;;;;;;;;;;;;;;18.65;47.36;101399.88;5120828;29;20442;-71
2023/06/14 06:41:11;;;;;;;;;;;;;;;18.74;46.41;101408.31;5120861;29;19918;-70
2023/06/14 06:43:43;;;;;;;;;;;;;;;18.84;46.03;101403.56;5120410;29;19915;-70
2023/06/14 06:46:14;;;;;;;;;;;;;;;18.93;46.40;101408.53;5123505;29;19919;-70
2023/06/14 06:48:45;;;;;;;;;;;;;;;19.04;46.06;101423.09;5124708;29;20256;-71
2023/06/14 06:51:16;;;;;;;;;;;;;;;19.15;46.56;101412.13;5124570;29;20006;-70
2023/06/14 06:53:52;;;;;;;;;;;;;;;19.26;46.01;101413.41;5125196;29;19919;-70
2023/06/14 06:56:24;;;;;;;;;;;;;;;19.39;45.13;101415.59;5124293;29;19919;-70
2023/06/14 06:58:55;;;;;;;;;;;;;;;19.45;44.78;101425.91;5124622;29;20358;-70
2023/06/14 07:01:28;;;;;;;;;;;;;;;19.55;44.77;101421.13;5124567;29;19919;-71
2023/06/14 07:04:00;;;;;;;;;;;;;;;19.62;44.84;101419.94;5124733;29;19923;-70
2023/06/14 07:06:31;;;;;;;;;;;;;;;19.76;44.49;101414.13;5124423;29;19974;-70
2023/06/14 07:09:04;;;;;;;;;;;;;;;19.89;43.95;101431.19;5124222;29;19930;-70
2023/06/14 07:11:35;;;;;;;;;;;;;;;19.99;43.55;101432.53;5122750;29;19923;-70
2023/06/14 07:14:06;;;;;;;;;;;;;;;20.08;43.18;101427.81;5124118;29;19966;-70
2023/06/14 07:16:38;;;;;;;;;;;;;;;20.16;43.84;101433.63;5124105;29;20015;-70
2023/06/14 07:19:10;;;;;;;;;;;;;;;20.26;42.73;101431.44;5124169;29;19927;-70
2023/06/14 07:21:41;;;;;;;;;;;;;;;20.33;42.54;101436.38;5124648;29;19915;-70
2023/06/14 07:24:13;;;;;;;;;;;;;;;20.42;42.53;101439.59;5123145;29;19923;-70
2023/06/14 07:26:44;;;;;;;;;;;;;;;20.49;41.91;101433.94;5124361;29;19915;-70
2023/06/14 07:29:16;;;;;;;;;;;;;;;20.61;42.18;101439.59;5123983;29;20410;-70
2023/06/14 07:31:47;;;;;;;;;;;;;;;20.75;41.95;101447.84;5123858;29;20361;-70
2023/06/14 07:34:18;;;;;;;;;;;;;;;20.82;41.79;101445.75;5123992;29;19919;-70
2023/06/14 07:36:51;;;;;;;;;;;;;;;20.89;41.52;101444.56;5123896;29;19979;-70
2023/06/14 07:39:23;;;;;;;;;;;;;;;21.06;41.94;101446.47;5123816;29;19919;-71
2023/06/14 07:41:54;;;;;;;;;;;;;;;21.20;41.45;101444.00;5123791;29;19919;-70
2023/06/14 07:44:27;;;;;;;;;;;;;;;21.31;41.40;101454.94;5123771;29;19919;-70
2023/06/14 07:46:59;;;;;;;;;;;;;;;21.45;41.03;101449.00;5123729;29;20090;-70
2023/06/14 07:49:31;;;;;;;;;;;;;;;21.56;40.50;101458.25;5123729;29;19919;-71
2023/06/14 07:52:02;;;;;;;;;;;;;;;21.69;40.91;101451.44;5123857;29;19934;-70
2023/06/14 07:54:33;;;;;;;;;;;;;;;21.83;40.90;101454.28;5123900;29;19919;-70
2023/06/14 07:57:06;;;;;;;;;;;;;;;21.94;40.20;101456.38;5121461;29;19919;-70
2023/06/14 07:59:37;;;;;;;;;;;;;;;22.03;39.97;101466.53;5123551;29;19926;-70
2023/06/14 08:02:08;;;;;;;;;;;;;;;22.15;39.03;101464.22;5123726;29;19914;-70
2023/06/14 08:04:40;;;;;;;;;;;;;;;22.24;39.02;101468.22;5123481;29;20363;-70
2023/06/14 08:07:12;;;;;;;;;;;;;;;22.30;39.31;101468.78;5123368;29;19919;-70
2023/06/14 08:09:43;;;;;;;;;;;;;;;22.40;37.98;101470.00;5123297;29;19930;-70
2023/06/14 08:12:14;;;;;;;;;;;;;;;22.49;37.34;101470.47;5122943;29;20037;-70
2023/06/14 08:14:45;;;;;;;;;;;;;;;22.54;37.83;101469.31;5123230;29;19961;-70
2023/06/14 08:17:17;;;;;;;;;;;;;;;22.63;36.88;101469.75;5123143;29;19919;-70
2023/06/14 08:19:48;;;;;;;;;;;;;;;22.68;37.17;101478.34;5123180;29;19925;-70
2023/06/14 08:22:19;;;;;;;;;;;;;;;22.69;36.19;101472.09;5123420;29;19919;-70
2023/06/14 08:24:51;;;;;;;;;;;;;;;22.80;36.95;101471.50;5122239;29;19919;-70
2023/06/14 08:27:22;;;;;;;;;;;;;;;22.85;36.35;101470.34;5121868;29;19919;-70
2023/06/14 08:29:53;;;;;;;;;;;;;;;22.91;36.58;101469.13;5123498;29;20252;-70
2023/06/14 08:32:25;;;;;;;;;;;;;;;23.06;36.35;101468.31;5122237;29;19919;-71
2023/06/14 08:34:56;;;;;;;;;;;;;;;23.23;35.86;101466.56;5123386;29;19962;-71
2023/06/14 08:37:27;;;;;;;;;;;;;;;23.28;35.10;101475.13;5122798;29;19919;-70
2023/06/14 08:39:58;;;;;;;;;;;;;;;23.27;35.50;101463.63;5122662;29;19919;-70
2023/06/14 08:42:30;;;;;;;;;;;;;;;23.35;35.08;101470.34;5122527;29;19921;-70
2023/06/14 08:45:02;;;;;;;;;;;;;;;23.50;36.09;101472.13;5122301;29;19923;-70
2023/06/14 08:47:36;;;;;;;;;;;;;;;23.65;35.51;101471.28;5122858;29;19975;-70
2023/06/14 08:50:08;;;;;;;;;;;;;;;23.71;34.84;101469.22;5122906;29;19946;-70
2023/06/14 08:52:45;;;;;;;;;;;;;;;23.74;34.59;101474.34;5122719;29;20046;-70
2023/06/14 08:55:17;;;;;;;;;;;;;;;23.79;34.41;101466.97;5122825;29;19958;-71
2023/06/14 08:57:49;;;;;;;;;;;;;;;23.93;33.98;101474.19;5122905;29;19959;-70
2023/06/14 09:00:21;;;;;;;;;;;;;;;23.93;34.15;101466.19;5122433;29;19915;-70
2023/06/14 09:02:57;;;;;;;;;;;;;;;23.96;33.98;101468.69;5122396;29;19919;-70
2023/06/14 09:05:28;;;;;;;;;;;;;;;24.00;33.54;101465.72;5122280;29;19915;-71
2023/06/14 09:08:00;;;;;;;;;;;;;;;24.04;32.33;101458.44;5121968;29;20201;-71
2023/06/14 09:10:36;;;;;;;;;;;;;;;24.18;32.95;101465.59;5121898;29;19929;-70
2023/06/14 09:13:08;;;;;;;;;;;;;;;24.28;31.89;101468.56;5122661;29;20270;-70
2023/06/14 09:15:39;;;;;;;;;;;;;;;24.37;32.29;101471.53;5121880;29;19919;-71
2023/06/14 09:18:10;;;;;;;;;;;;;;;24.45;30.87;101467.56;5122856;29;19930;-70
2023/06/14 09:20:42;;;;;;;;;;;;;;;24.59;32.29;101464.09;5121228;29;19923;-71
2023/06/14 09:23:13;;;;;;;;;;;;;;;24.73;31.17;101470.28;5122224;29;19926;-70
2023/06/14 09:25:46;;;;;;;;;;;;;;;24.73;30.46;101464.97;5122353;29;20367;-70
2023/06/14 09:28:17;;;;;;;;;;;;;;;24.80;31.04;101467.25;5122121;29;19922;-71
2023/06/14 09:30:48;;;;;;;;;;;;;;;24.95;30.30;101474.28;5120723;29;20260;-70
2023/06/14 09:33:20;;;;;;;;;;;;;;;25.00;28.44;101474.00;5121888;29;20021;-70
2023/06/14 09:35:52;;;;;;;;;;;;;;;24.98;27.59;101478.56;5120815;29;19979;-70
2023/06/14 09:38:24;;;;;;;;;;;;;;;25.09;28.81;101481.41;5121602;29;19926;-70
2023/06/14 09:40:56;;;;;;;;;;;;;;;25.15;27.44;101477.50;5122264;29;19919;-70
2023/06/14 09:43:28;;;;;;;;;;;;;;;25.18;27.90;101466.63;5121560;29;19994;-70
2023/06/14 09:46:03;;;;;;;;;;;;;;;25.19;26.93;101485.22;5122186;29;20021;-70
2023/06/14 09:48:34;;;;;;;;;;;;;;;25.25;28.18;101489.31;5121444;29;19915;-70
2023/06/14 09:51:06;;;;;;;;;;;;;;;25.37;26.97;101483.19;5121490;29;20282;-70
2023/06/14 09:53:38;;;;;;;;;;;;;;;25.56;28.53;101480.22;5121666;29;19926;-70
2023/06/14 09:56:10;;;;;;;;;;;;;;;25.63;28.11;101478.00;5121319;29;19927;-70
2023/06/14 09:58:41;;;;;;;;;;;;;;;25.70;28.33;101471.31;5121559;29;20427;-70
2023/06/14 10:01:13;;;;;;;;;;;;;;;25.80;27.52;101479.56;5121247;29;20013;-71
2023/06/14 10:03:45;;;;;;;;;;;;;;;25.84;27.49;101476.59;5121249;29;20375;-70
2023/06/14 10:06:17;;;;;;;;;;;;;;;26.11;28.07;101465.03;5121200;29;19965;-70
2023/06/14 10:08:49;;;;;;;;;;;;;;;26.95;27.73;101475.34;5121593;29;19919;-71
2023/06/14 10:11:20;;;;;;;;;;;;;;;28.32;24.77;101476.84;5120771;29;19930;-70
2023/06/14 10:13:52;;;;;;;;;;;;;;;29.67;23.41;101468.88;5121692;29;20279;-70
2023/06/14 10:16:31;;;;;;;;;;;;;;;30.93;22.38;101466.22;5121749;29;19926;-71
2023/06/14 10:19:07;;;;;;;;;;;;;;;32.10;19.58;101473.66;5121521;29;20320;-71
2023/06/14 10:21:57;;;;;;;;;;;;;;;32.55;20.10;101472.97;5120785;29;20335;-71
2023/06/14 10:24:38;;;;;;;;;;;;;;;33.39;19.21;101469.34;5121813;29;19919;-70
2023/06/14 10:27:10;;;;;;;;;;;;;;;34.25;19.03;101476.06;5121594;29;19923;-71
2023/06/14 10:29:53;;;;;;;;;;;;;;;34.26;17.24;101468.78;5121329;29;20406;-71
2023/06/14 10:32:27;;;;;;;;;;;;;;;34.37;19.32;101464.97;5120890;29;19915;-71
2023/06/14 10:35:00;;;;;;;;;;;;;;;33.17;19.52;101469.78;5121419;29;20287;-71
2023/06/14 10:37:31;;;;;;;;;;;;;;;34.21;19.17;101481.91;5120825;29;20034;-71
2023/06/14 10:40:04;;;;;;;;;;;;;;;35.10;17.71;101475.34;5120535;29;20009;-71
2023/06/14 10:42:35;;;;;;;;;;;;;;;36.04;17.37;101480.59;5121049;29;20005;-71
2023/06/14 10:45:12;;;;;;;;;;;;;;;36.58;17.75;101475.44;5121094;29;20033;-71
2023/06/14 10:47:43;;;;;;;;;;;;;;;36.84;17.39;101475.19;5120578;29;19974;-71
2023/06/14 10:50:19;;;;;;;;;;;;;;;37.28;15.86;101468.34;5119584;29;19927;-71
2023/06/14 10:52:50;;;;;;;;;;;;;;;37.60;16.01;101474.59;5120791;29;19966;-70
2023/06/14 10:55:22;;;;;;;;;;;;;;;38.16;15.56;101478.91;5120861;29;19923;-71
2023/06/14 10:57:58;;;;;;;;;;;;;;;38.62;14.96;101476.91;5120617;29;19919;-71
2023/06/14 11:00:34;;;;;;;;;;;;;;;38.35;14.67;101477.53;5120654;29;20354;-71
2023/06/14 11:03:24;;;;;;;;;;;;;;;38.64;15.98;101476.72;5120698;29;20391;-71
2023/06/14 11:05:56;;;;;;;;;;;;;;;38.90;13.62;101472.66;5120573;29;19922;-71
2023/06/14 11:08:39;;;;;;;;;;;;;;;39.23;15.02;101480.44;5120331;29;19966;-72
2023/06/14 11:11:10;;;;;;;;;;;;;;;39.33;13.55;101479.06;5120729;29;20434;-71
2023/06/14 11:13:43;;;;;;;;;;;;;;;38.96;14.79;101474.63;5121081;29;20021;-71
2023/06/14 11:16:15;;;;;;;;;;;;;;;38.93;14.96;101475.00;5120284;29;19994;-72
2023/06/14 11:18:47;;;;;;;;;;;;;;;39.45;14.46;101465.75;5121001;29;19915;-71
2023/06/14 11:21:18;;;;;;;;;;;;;;;39.00;14.66;101475.94;5120383;29;19915;-71
2023/06/14 11:23:51;;;;;;;;;;;;;;;38.33;14.08;101457.84;5120485;29;20287;-71
2023/06/14 11:26:27;;;;;;;;;;;;;;;37.47;15.37;101464.31;5120478;29;19926;-72
2023/06/14 11:28:59;;;;;;;;;;;;;;;37.44;15.66;101458.41;5120772;29;19986;-72
2023/06/14 11:31:31;;;;;;;;;;;;;;;36.60;15.81;101453.53;5121260;29;19970;-72
2023/06/14 11:34:03;;;;;;;;;;;;;;;34.90;17.33;101438.69;5124316;29;19946;-71
2023/06/14 11:36:35;;;;;;;;;;;;;;;36.05;16.83;101455.13;5123957;29;19919;-72
2023/06/14 11:39:09;;;;;;;;;;;;;;;37.69;16.02;101454.50;5124056;29;19938;-71
2023/06/14 11:41:44;;;;;;;;;;;;;;;38.78;14.68;101459.53;5124117;29;19923;-71
2023/06/14 11:44:16;;;;;;;;;;;;;;;39.59;13.91;101461.28;5122494;29;20307;-71
2023/06/14 11:46:47;;;;;;;;;;;;;;;40.13;14.62;101462.59;5123737;29;19919;-71
2023/06/14 11:49:18;;;;;;;;;;;;;;;39.15;13.54;101454.94;5123467;29;20402;-72
2023/06/14 11:51:49;;;;;;;;;;;;;;;36.36;16.08;101452.56;5123267;29;19922;-72
2023/06/14 11:54:21;;;;;;;;;;;;;;;36.71;14.85;101455.00;5123288;29;19969;-72
2023/06/14 11:56:52;;;;;;;;;;;;;;;38.46;15.18;101458.00;5123809;29;19919;-72
2023/06/14 11:59:24;;;;;;;;;;;;;;;39.15;14.79;101456.84;5123682;29;19919;-72
2023/06/14 12:01:56;;;;;;;;;;;;;;;38.56;15.17;101447.69;5123457;29;19919;-71
2023/06/14 12:04:27;;;;;;;;;;;;;;;39.46;14.85;101458.41;5122137;29;19919;-71
2023/06/14 12:07:19;;;;;;;;;;;;;;;40.30;14.02;101454.94;5123144;29;20291;-71
2023/06/14 12:09:53;;;;;;;;;;;;;;;40.87;13.52;101463.91;5123407;29;19915;-72
2023/06/14 12:12:25;;;;;;;;;;;;;;;40.62;13.86;101461.69;5122849;29;19935;-71
2023/06/14 12:14:56;;;;;;;;;;;;;;;38.62;14.74;101454.28;5123404;29;19914;-71
2023/06/14 12:17:32;;;;;;;;;;;;;;;39.54;13.85;101455.59;5122054;29;19986;-71
2023/06/14 12:20:13;;;;;;;;;;;;;;;40.91;13.91;101447.94;5122983;29;20359;-72
2023/06/14 12:22:56;;;;;;;;;;;;;;;41.16;13.86;101450.94;5123401;29;20055;-71
2023/06/14 12:25:30;;;;;;;;;;;;;;;41.66;12.32;101453.34;5122905;29;20018;-71
2023/06/14 12:28:09;;;;;;;;;;;;;;;41.78;11.94;101459.91;5123051;29;20410;-71
2023/06/14 12:30:40;;;;;;;;;;;;;;;41.41;13.12;101456.69;5122937;29;19919;-71
2023/06/14 12:33:11;;;;;;;;;;;;;;;42.50;12.87;101456.44;5123518;29;19926;-72
2023/06/14 12:35:42;;;;;;;;;;;;;;;42.59;12.12;101453.28;5123404;29;19923;-71
2023/06/14 12:38:16;;;;;;;;;;;;;;;42.43;12.50;101451.81;5121508;29;19989;-71
2023/06/14 12:40:47;;;;;;;;;;;;;;;42.84;11.25;101454.44;5123268;29;20010;-71
2023/06/14 12:43:18;;;;;;;;;;;;;;;42.80;11.55;101451.28;5122258;29;20415;-71
2023/06/14 12:45:50;;;;;;;;;;;;;;;42.56;12.26;101458.34;5122687;29;20282;-71
2023/06/14 12:48:21;;;;;;;;;;;;;;;43.70;12.38;101469.53;5122685;29;19919;-71
2023/06/14 12:50:53;;;;;;;;;;;;;;;44.34;11.20;101461.13;5122858;29;20401;-71